Skikda, Algeria
Current Conditions -  °F | °C
As of 2:30 PM on Monday 20 Oct 2014 (Local Time) from DABC Reporting Station
Clear Clear  
Wind Chill: 84°   Ceiling: Unl
Heat Index: 84°   Visibility: 6mi
Dew Point: 45°   Wind: 9mph
Humidity: 25%   Direction: 330°NNW
Pressure: 30.21"   Gusts: NA
Location:  36.74°N, 6.91°E
Report Text: DABC 201330Z 33008KT CAVOK 29/07 Q1023
Loading
Personal Weather Stations






























Interactive Weather Map
Tropical Storm Tracking
New forecast layout! Learn more

10-Day Weather Forecast

Advertisements
Track Severe Weather on mobile